Time;durP1;ratioP1;P1;durP2;ratioP2;P2;SDS_P1;SDS_P2;PMS_P1;PMS_P2;Temp;Humidity;BMP_temperature;BMP_pressure;BME280_temperature;BME280_humidity;BME280_pressure;Samples;Min_cycle;Max_cycle;Signal;HPM_P1;HPM_P2
2021/12/12 00:00:59;;;;;;;66.80;35.28;;;;;;;-1.30;100.00;101403.53;5068314;28;20045;-64
2021/12/12 00:03:39;;;;;;;62.70;33.28;;;;;;;-1.27;100.00;101409.53;5069708;28;20123;-64
2021/12/12 00:06:24;;;;;;;68.95;36.97;;;;;;;-1.37;100.00;101409.53;5069331;28;20068;-65
2021/12/12 00:08:55;;;;;;;65.72;34.03;;;;;;;-1.35;100.00;101411.25;5043219;28;20132;-65
2021/12/12 00:11:25;;;;;;;61.55;33.00;;;;;;;-1.49;100.00;101410.34;5072796;28;20040;-65
2021/12/12 00:14:00;;;;;;;71.85;35.63;;;;;;;-1.38;100.00;101416.41;5061679;28;20048;-65
2021/12/12 00:16:28;;;;;;;64.20;34.30;;;;;;;-1.33;100.00;101412.13;5064950;28;20159;-64
2021/12/12 00:18:55;;;;;;;69.47;35.35;;;;;;;-1.51;100.00;101409.47;5047095;28;20048;-65
2021/12/12 00:21:25;;;;;;;67.25;35.22;;;;;;;-1.58;100.00;101407.72;5053212;28;20469;-63
2021/12/12 00:23:52;;;;;;;63.58;34.40;;;;;;;-1.61;100.00;101412.91;5064419;28;20132;-64
2021/12/12 00:26:20;;;;;;;71.57;35.55;;;;;;;-1.63;100.00;101419.75;5062605;28;20056;-63
2021/12/12 00:28:48;;;;;;;60.53;32.72;;;;;;;-1.69;100.00;101423.19;5058691;28;20075;-64
2021/12/12 00:31:17;;;;;;;62.35;34.28;;;;;;;-1.62;100.00;101424.94;5054616;28;20063;-65
2021/12/12 00:33:48;;;;;;;65.32;33.53;;;;;;;-1.51;100.00;101427.56;5069162;28;20469;-64
2021/12/12 00:36:18;;;;;;;63.17;34.72;;;;;;;-1.50;100.00;101436.16;5066750;28;20460;-64
2021/12/12 00:38:51;;;;;;;67.85;35.42;;;;;;;-1.60;100.00;101433.56;5062458;28;20123;-65
2021/12/12 00:41:26;;;;;;;62.58;33.47;;;;;;;-1.63;100.00;101441.28;5052375;28;20443;-64
2021/12/12 00:43:54;;;;;;;62.28;32.63;;;;;;;-1.55;100.00;101451.63;5051916;28;20633;-63
2021/12/12 00:46:22;;;;;;;64.32;35.45;;;;;;;-1.56;100.00;101455.94;5066445;28;20048;-65
2021/12/12 00:48:50;;;;;;;60.25;32.75;;;;;;;-1.55;100.00;101459.38;5071801;28;20052;-65
2021/12/12 00:51:23;;;;;;;65.03;34.15;;;;;;;-1.46;100.00;101459.41;5069903;28;20056;-64
2021/12/12 00:53:50;;;;;;;65.22;35.10;;;;;;;-1.44;100.00;101460.31;5066280;28;20543;-65
2021/12/12 00:56:18;;;;;;;62.50;33.13;;;;;;;-1.45;100.00;101463.72;5068452;28;20045;-64
2021/12/12 00:58:45;;;;;;;58.78;32.53;;;;;;;-1.39;100.00;101466.34;5072830;28;20058;-64
2021/12/12 01:01:31;;;;;;;62.50;34.25;;;;;;;-1.44;100.00;101464.59;5054590;28;20306;-65
2021/12/12 01:04:04;;;;;;;54.42;32.33;;;;;;;-1.48;100.00;101458.56;5050141;28;20373;-65
2021/12/12 01:06:32;;;;;;;59.30;33.33;;;;;;;-1.35;100.00;101459.44;5070384;28;20119;-65
2021/12/12 01:09:02;;;;;;;63.05;34.22;;;;;;;-1.32;100.00;101451.72;5071209;28;20546;-63
2021/12/12 01:11:35;;;;;;;55.83;31.95;;;;;;;-1.24;100.00;101457.78;5053504;28;20076;-65
2021/12/12 01:14:05;;;;;;;61.65;31.35;;;;;;;-1.34;100.00;101466.38;5063578;28;20560;-65
2021/12/12 01:16:38;;;;;;;62.55;32.90;;;;;;;-1.27;100.00;101463.78;5053939;28;20046;-64
2021/12/12 01:19:13;;;;;;;63.60;32.10;;;;;;;-1.10;100.00;101460.41;5068063;28;21072;-64
2021/12/12 01:21:45;;;;;;;51.63;32.08;;;;;;;-1.16;100.00;101461.25;5074316;28;20052;-64
2021/12/12 01:24:18;;;;;;;55.38;31.85;;;;;;;-1.16;100.00;101470.72;5065052;28;20048;-65
2021/12/12 01:26:47;;;;;;;60.53;32.42;;;;;;;-1.11;100.00;101464.69;5069678;28;20059;-63
2021/12/12 01:29:14;;;;;;;53.78;31.50;;;;;;;-1.18;100.00;101459.50;5042573;28;20135;-64
2021/12/12 01:31:47;;;;;;;59.47;33.17;;;;;;;-1.33;100.00;101456.03;5062081;28;20157;-64
2021/12/12 01:34:19;;;;;;;55.88;30.85;;;;;;;-1.28;100.00;101463.78;5058806;28;20144;-65
2021/12/12 01:39:29;;;;;;;53.38;31.15;;;;;;;-1.36;100.00;101463.75;5060186;28;20052;-63
2021/12/12 01:42:02;;;;;;;55.53;30.27;;;;;;;-1.41;100.00;101462.03;5052762;28;20048;-63
2021/12/12 01:44:42;;;;;;;52.80;29.13;;;;;;;-1.43;100.00;101456.84;5047303;28;20087;-65
2021/12/12 01:47:14;;;;;;;56.72;32.53;;;;;;;-1.57;100.00;101454.22;5047731;28;20536;-63
2021/12/12 01:49:47;;;;;;;53.38;30.77;;;;;;;-1.53;100.00;101462.84;5053376;28;20061;-64
2021/12/12 01:52:17;;;;;;;53.53;29.17;;;;;;;-1.46;100.00;101462.00;5040842;28;20048;-65
2021/12/12 01:54:47;;;;;;;53.08;29.65;;;;;;;-1.44;100.00;101468.06;5072609;28;20087;-64
2021/12/12 01:57:23;;;;;;;52.13;29.50;;;;;;;-1.57;100.00;101461.13;5065049;28;20446;-65
2021/12/12 01:59:51;;;;;;;53.72;29.95;;;;;;;-1.58;100.00;101460.22;5060210;28;20091;-63
2021/12/12 02:02:22;;;;;;;53.28;31.08;;;;;;;-1.63;100.00;101461.94;5073648;28;20070;-64
2021/12/12 02:04:52;;;;;;;50.35;30.10;;;;;;;-1.67;100.00;101457.59;5045207;28;20040;-65
2021/12/12 02:07:24;;;;;;;54.53;30.83;;;;;;;-1.63;100.00;101463.66;5052753;28;20060;-65
2021/12/12 02:09:52;;;;;;;53.17;29.75;;;;;;;-1.72;100.00;101458.44;5063085;28;20531;-64
2021/12/12 02:12:21;;;;;;;52.38;31.45;;;;;;;-1.79;100.00;101455.00;5052405;28;20139;-64
2021/12/12 02:14:48;;;;;;;55.15;31.60;;;;;;;-1.79;100.00;101455.84;5042257;28;20523;-63
2021/12/12 02:17:41;;;;;;;54.97;31.27;;;;;;;-1.80;100.00;101453.25;5054251;28;20041;-64
2021/12/12 02:20:18;;;;;;;56.35;30.73;;;;;;;-1.80;100.00;101448.97;5043686;28;20567;-65
2021/12/12 02:36:33;;;;;;;52.33;29.60;;;;;;;-1.83;100.00;101458.41;5070347;28;20492;-65
2021/12/12 02:39:05;;;;;;;46.92;28.60;;;;;;;-1.93;100.00;101462.66;5073138;22;20457;-58
2021/12/12 02:41:32;;;;;;;52.53;30.85;;;;;;;-1.96;100.00;101472.09;5094871;28;20093;-58
2021/12/12 02:44:01;;;;;;;52.58;31.17;;;;;;;-1.91;100.00;101467.81;5082786;28;20108;-57
2021/12/12 02:46:33;;;;;;;50.25;29.42;;;;;;;-1.96;100.00;101478.09;5098585;28;20477;-61
2021/12/12 02:49:07;;;;;;;48.88;29.92;;;;;;;-1.97;100.00;101476.38;5098339;28;20054;-60
2021/12/12 02:51:44;;;;;;;51.42;29.90;;;;;;;-1.94;100.00;101484.13;5084388;28;20296;-63
2021/12/12 02:54:11;;;;;;;47.00;28.15;;;;;;;-1.93;100.00;101487.59;5078312;28;20122;-61
2021/12/12 02:56:43;;;;;;;51.90;29.70;;;;;;;-1.91;100.00;101484.16;5084393;28;20052;-59
2021/12/12 02:59:16;;;;;;;54.25;29.88;;;;;;;-1.77;100.00;101484.22;5079896;28;20464;-59
2021/12/12 03:02:01;;;;;;;52.25;29.30;;;;;;;-1.78;100.00;101495.41;5084490;28;20048;-62
2021/12/12 03:04:29;;;;;;;49.90;29.45;;;;;;;-1.85;100.00;101491.06;5084536;28;20180;-60
2021/12/12 03:06:57;;;;;;;48.42;29.08;;;;;;;-1.76;100.00;101485.09;5059281;28;20041;-60
2021/12/12 03:09:31;;;;;;;51.05;29.00;;;;;;;-1.82;100.00;101480.78;5083566;28;20704;-63
2021/12/12 03:12:06;;;;;;;48.70;29.67;;;;;;;-1.82;100.00;101479.03;5087441;28;20062;-62
2021/12/12 03:14:35;;;;;;;50.88;28.85;;;;;;;-1.84;100.00;101480.78;5086144;28;20071;-61
2021/12/12 03:17:06;;;;;;;48.15;28.33;;;;;;;-1.83;100.00;101491.97;5091829;28;20082;-63
2021/12/12 03:19:34;;;;;;;48.15;28.38;;;;;;;-1.85;100.00;101493.66;5086793;28;20139;-57
2021/12/12 03:22:05;;;;;;;46.53;29.10;;;;;;;-1.75;100.00;101497.16;5086959;28;20603;-60
2021/12/12 03:24:32;;;;;;;53.92;28.33;;;;;;;-1.57;100.00;101497.25;5085443;28;20087;-60
2021/12/12 03:27:01;;;;;;;50.90;27.55;;;;;;;-1.63;100.00;101492.91;5073230;28;20127;-61
2021/12/12 03:29:29;;;;;;;43.83;27.58;;;;;;;-1.63;100.00;101492.91;5066137;28;20418;-59
2021/12/12 03:32:00;;;;;;;46.03;27.67;;;;;;;-1.63;100.00;101490.31;5089314;28;20573;-58
2021/12/12 03:34:31;;;;;;;48.92;26.75;;;;;;;-1.65;100.00;101494.63;5084974;28;20618;-61
2021/12/12 03:36:59;;;;;;;47.38;27.60;;;;;;;-1.67;100.00;101498.91;5089586;28;20064;-58
2021/12/12 03:39:29;;;;;;;43.53;27.20;;;;;;;-1.64;100.00;101500.66;5091559;28;20055;-62
2021/12/12 03:41:58;;;;;;;49.17;27.02;;;;;;;-1.60;100.00;101507.56;5088448;28;20051;-60
2021/12/12 03:44:28;;;;;;;45.78;26.95;;;;;;;-1.65;100.00;101502.38;5088402;28;20132;-59
2021/12/12 03:47:03;;;;;;;46.67;27.83;;;;;;;-1.69;100.00;101503.22;5088896;28;21762;-60
2021/12/12 03:49:32;;;;;;;45.28;25.98;;;;;;;-1.67;100.00;101501.50;5084312;28;21068;-59
2021/12/12 03:52:00;;;;;;;43.25;26.02;;;;;;;-1.62;100.00;101501.50;5083510;28;20105;-56
2021/12/12 03:54:27;;;;;;;44.70;26.13;;;;;;;-1.61;100.00;101500.69;5085234;28;20058;-58
2021/12/12 03:56:54;;;;;;;47.85;26.55;;;;;;;-1.52;100.00;101505.03;5087019;28;20056;-59
2021/12/12 03:59:21;;;;;;;42.78;25.00;;;;;;;-1.46;100.00;101505.03;5084643;28;20048;-62
2021/12/12 04:01:50;;;;;;;47.25;27.48;;;;;;;-1.42;100.00;101507.66;5087624;28;20083;-60
2021/12/12 04:04:21;;;;;;;42.20;25.40;;;;;;;-1.38;100.00;101506.81;5078974;28;20056;-62
2021/12/12 04:06:49;;;;;;;45.38;25.80;;;;;;;-1.38;100.00;101505.94;5089256;28;20052;-59
2021/12/12 04:09:17;;;;;;;43.40;24.95;;;;;;;-1.40;100.00;101498.16;5085782;28;20627;-62
2021/12/12 04:11:55;;;;;;;46.67;27.15;;;;;;;-1.40;100.00;101499.91;5086950;28;20044;-61
2021/12/12 04:14:23;;;;;;;41.35;25.98;;;;;;;-1.47;100.00;101508.50;5083042;28;20177;-59
2021/12/12 04:16:53;;;;;;;45.17;26.08;;;;;;;-1.52;100.00;101502.44;5081719;28;20045;-56
2021/12/12 04:19:21;;;;;;;42.55;25.73;;;;;;;-1.46;100.00;101520.53;5075988;28;20140;-61
2021/12/12 04:21:48;;;;;;;40.70;25.08;;;;;;;-1.44;100.00;101518.81;5069819;28;20067;-61
2021/12/12 04:24:28;;;;;;;42.15;24.92;;;;;;;-1.45;100.00;101522.25;5082682;28;20103;-61
2021/12/12 04:26:56;;;;;;;43.40;26.10;;;;;;;-1.50;100.00;101518.78;5089029;28;20047;-58
2021/12/12 04:29:28;;;;;;;44.10;26.40;;;;;;;-1.51;100.00;101525.69;5085085;28;20044;-60
2021/12/12 04:32:02;;;;;;;46.45;25.73;;;;;;;-1.48;100.00;101524.84;5081222;28;20054;-62
2021/12/12 04:34:32;;;;;;;43.10;25.38;;;;;;;-1.47;100.00;101526.56;5082920;28;20067;-60
2021/12/12 04:37:00;;;;;;;44.50;25.13;;;;;;;-1.42;100.00;101536.06;5085894;28;20062;-57
2021/12/12 04:39:32;;;;;;;38.92;24.38;;;;;;;-1.36;100.00;101533.50;5086393;28;20064;-57
2021/12/12 04:42:13;;;;;;;38.95;24.08;;;;;;;-1.28;100.00;101534.41;5089010;28;20642;-61
2021/12/12 04:44:43;;;;;;;40.42;24.52;;;;;;;-1.17;100.00;101533.56;5078387;28;20058;-62
2021/12/12 04:50:34;;;;;;;42.03;25.70;;;;;;;-0.95;100.00;101535.38;5064722;28;20066;-61
2021/12/12 04:53:12;;;;;;;39.13;24.10;;;;;;;-0.88;100.00;101537.13;5084509;28;20628;-63
2021/12/12 04:56:03;;;;;;;50.55;25.80;;;;;;;-0.81;100.00;101535.41;5084396;28;20052;-61
2021/12/12 04:59:05;;;;;;;46.92;26.77;;;;;;;-0.75;100.00;101540.59;5062739;28;20638;-56
2021/12/12 05:01:38;;;;;;;51.20;27.42;;;;;;;-0.69;100.00;101543.19;5055022;28;20066;-59
2021/12/12 05:04:20;;;;;;;52.58;28.10;;;;;;;-0.53;100.00;101547.53;5083558;28;20044;-62
2021/12/12 05:06:56;;;;;;;48.28;28.13;;;;;;;-0.53;100.00;101544.09;5066322;28;20040;-57
2021/12/12 05:09:30;;;;;;;42.83;25.85;;;;;;;-0.48;100.00;101551.84;5070451;28;20062;-60
2021/12/12 05:12:03;;;;;;;41.65;24.88;;;;;;;-0.53;100.00;101546.69;5084247;28;20039;-61
2021/12/12 05:14:45;;;;;;;52.72;26.40;;;;;;;-0.53;100.00;101542.38;5084069;28;20113;-61
2021/12/12 05:17:20;;;;;;;48.30;26.45;;;;;;;-0.46;100.00;101542.38;5068689;28;20051;-61
2021/12/12 05:19:53;;;;;;;43.78;25.70;;;;;;;-0.44;100.00;101544.09;5085654;28;20126;-58
2021/12/12 05:22:30;;;;;;;45.92;27.38;;;;;;;-0.41;100.00;101538.91;5067610;28;20066;-59
2021/12/12 05:24:59;;;;;;;44.60;25.30;;;;;;;-0.39;100.00;101549.28;5081552;28;20585;-57
2021/12/12 05:27:27;;;;;;;44.42;23.83;;;;;;;-0.34;100.00;101552.72;5084990;28;20054;-58
2021/12/12 05:30:17;;;;;;;39.88;24.77;;;;;;;-0.35;100.00;101551.88;5067719;28;20138;-60
2021/12/12 05:32:45;;;;;;;45.03;25.65;;;;;;;-0.32;100.00;101541.50;5087993;28;20709;-60
2021/12/12 05:35:14;;;;;;;40.38;24.40;;;;;;;-0.21;100.00;101551.03;5067288;28;20052;-60
2021/12/12 05:37:41;;;;;;;45.10;24.67;;;;;;;-0.18;100.00;101556.16;5087255;28;20040;-56
2021/12/12 05:40:11;;;;;;;45.28;25.35;;;;;;;-0.28;100.00;101550.13;5067640;28;20480;-61
2021/12/12 05:42:38;;;;;;;46.25;25.77;;;;;;;-0.30;100.00;101551.88;5069779;28;20044;-56
2021/12/12 05:45:07;;;;;;;42.97;25.35;;;;;;;-0.35;100.00;101553.59;5066171;28;20056;-58
2021/12/12 05:47:36;;;;;;;46.83;27.30;;;;;;;-0.37;100.00;101553.56;5085858;28;20032;-57
2021/12/12 05:50:05;;;;;;;45.92;26.08;;;;;;;-0.41;100.00;101561.34;5084750;28;20708;-59
2021/12/12 05:52:32;;;;;;;47.35;27.85;;;;;;;-0.42;100.00;101559.63;5087814;28;20417;-60
2021/12/12 05:55:00;;;;;;;45.38;26.13;;;;;;;-0.37;100.00;101560.47;5075049;28;20093;-57
2021/12/12 05:57:28;;;;;;;51.40;25.77;;;;;;;-0.43;100.00;101563.06;5085216;28;20566;-59
2021/12/12 05:59:57;;;;;;;45.90;26.23;;;;;;;-0.45;100.00;101567.38;5064534;28;20051;-61
2021/12/12 06:02:25;;;;;;;50.67;26.67;;;;;;;-0.40;100.00;101570.84;5071171;28;20060;-60
2021/12/12 06:04:57;;;;;;;43.65;25.63;;;;;;;-0.46;100.00;101561.31;5085052;28;20058;-60
2021/12/12 06:07:24;;;;;;;55.67;26.30;;;;;;;-0.52;100.00;101563.91;5083998;28;20356;-60
2021/12/12 06:09:52;;;;;;;52.10;25.88;;;;;;;-0.51;100.00;101560.47;5056359;28;20055;-60
2021/12/12 06:12:19;;;;;;;45.08;26.40;;;;;;;-0.47;100.00;101558.75;5085047;28;20139;-59
2021/12/12 06:14:47;;;;;;;43.03;25.40;;;;;;;-0.52;100.00;101551.84;5069682;28;20465;-55
2021/12/12 06:17:16;;;;;;;42.20;24.25;;;;;;;-0.46;100.00;101550.97;5084929;28;20052;-60
2021/12/12 06:19:44;;;;;;;39.38;25.27;;;;;;;-0.46;100.00;101563.91;5081844;28;20062;-60
2021/12/12 06:22:12;;;;;;;41.28;24.75;;;;;;;-0.44;100.00;101551.88;5055446;28;20062;-61
2021/12/12 06:24:40;;;;;;;40.00;25.85;;;;;;;-0.41;100.00;101557.03;5081953;28;20058;-58
2021/12/12 06:27:14;;;;;;;40.85;22.90;;;;;;;-0.55;100.00;101546.66;5086647;28;20050;-60
2021/12/12 06:29:43;;;;;;;37.05;24.90;;;;;;;-0.67;100.00;101549.25;5082101;28;20047;-61
2021/12/12 06:32:10;;;;;;;38.25;22.60;;;;;;;-0.69;100.00;101552.69;5059422;28;20516;-60
2021/12/12 06:34:38;;;;;;;41.17;24.23;;;;;;;-0.61;100.00;101545.81;5084316;28;20048;-58
2021/12/12 06:37:05;;;;;;;39.20;23.90;;;;;;;-0.74;100.00;101550.06;5086143;28;20048;-60
2021/12/12 06:39:35;;;;;;;36.70;23.52;;;;;;;-0.83;100.00;101557.81;5080901;28;20048;-59
2021/12/12 06:42:04;;;;;;;39.38;23.00;;;;;;;-0.74;100.00;101552.66;5050665;28;20441;-60
2021/12/12 06:44:32;;;;;;;36.42;23.27;;;;;;;-0.85;100.00;101567.31;5080725;28;20135;-58
2021/12/12 06:47:00;;;;;;;40.40;24.58;;;;;;;-0.84;100.00;101566.44;5050351;28;20072;-60
2021/12/12 06:49:27;;;;;;;40.47;24.70;;;;;;;-0.94;100.00;101570.72;5075569;28;20532;-57
2021/12/12 06:51:57;;;;;;;38.53;24.67;;;;;;;-1.00;100.00;101567.22;5071144;28;20044;-60
2021/12/12 06:54:26;;;;;;;40.60;24.42;;;;;;;-1.01;100.00;101568.94;5078818;28;20044;-60
2021/12/12 06:57:02;;;;;;;38.25;24.10;;;;;;;-1.06;100.00;101563.78;5078921;28;20044;-62
2021/12/12 06:59:32;;;;;;;40.85;24.23;;;;;;;-1.00;100.00;101569.81;5062568;28;20055;-59
2021/12/12 07:01:59;;;;;;;42.60;25.00;;;;;;;-0.99;100.00;101576.69;5086454;28;20055;-60
2021/12/12 07:04:30;;;;;;;38.28;23.83;;;;;;;-1.03;100.00;101574.13;5069185;28;20141;-59
2021/12/12 07:06:59;;;;;;;38.42;23.60;;;;;;;-0.99;100.00;101572.44;5065778;28;20097;-59
2021/12/12 07:09:30;;;;;;;40.47;24.90;;;;;;;-1.03;100.00;101570.69;5066946;28;20822;-60
2021/12/12 07:12:01;;;;;;;41.95;24.33;;;;;;;-0.99;100.00;101577.59;5067838;28;20063;-62
2021/12/12 07:14:28;;;;;;;45.38;24.60;;;;;;;-1.02;100.00;101577.56;5088695;28;20082;-57
2021/12/12 07:16:56;;;;;;;38.35;23.75;;;;;;;-1.03;100.00;101581.88;5087981;28;20039;-61
2021/12/12 07:19:23;;;;;;;38.30;23.10;;;;;;;-1.03;100.00;101581.88;5086625;28;20044;-62
2021/12/12 07:21:51;;;;;;;44.97;24.55;;;;;;;-0.88;100.00;101582.78;5072197;28;20058;-57
2021/12/12 07:24:19;;;;;;;47.67;24.77;;;;;;;-0.85;100.00;101585.41;5071957;28;20055;-59
2021/12/12 07:26:46;;;;;;;45.28;25.10;;;;;;;-0.85;100.00;101590.56;5092085;28;20044;-58
2021/12/12 07:29:13;;;;;;;45.83;25.42;;;;;;;-0.93;100.00;101593.13;5089566;28;20058;-62
2021/12/12 07:31:42;;;;;;;40.42;23.75;;;;;;;-0.90;100.00;101585.38;5066819;28;20132;-60
2021/12/12 07:34:11;;;;;;;42.05;24.65;;;;;;;-0.93;100.00;101581.91;5079714;28;20051;-60
2021/12/12 07:36:54;;;;;;;41.58;23.73;;;;;;;-0.92;100.00;101587.06;5093236;28;20131;-59
2021/12/12 07:39:22;;;;;;;42.50;24.73;;;;;;;-0.83;100.00;101588.84;5082259;28;20055;-59
2021/12/12 07:41:52;;;;;;;41.95;25.25;;;;;;;-0.82;100.00;101587.97;5070731;28;20151;-59
2021/12/12 07:44:21;;;;;;;45.17;25.38;;;;;;;-0.79;100.00;101594.03;5084772;28;20064;-61
2021/12/12 07:46:51;;;;;;;43.28;25.52;;;;;;;-0.69;100.00;101594.91;5089876;28;20524;-61
2021/12/12 07:49:22;;;;;;;45.72;26.05;;;;;;;-0.74;100.00;101595.75;5089751;28;20062;-60
2021/12/12 07:51:51;;;;;;;45.35;24.92;;;;;;;-0.67;100.00;101602.69;5090556;28;20438;-60
2021/12/12 07:54:18;;;;;;;44.60;23.92;;;;;;;-0.45;100.00;101603.56;5055432;28;20138;-59
2021/12/12 07:56:46;;;;;;;41.53;25.05;;;;;;;-0.54;100.00;101601.84;5092628;28;20056;-59
2021/12/12 07:59:15;;;;;;;39.72;24.60;;;;;;;-0.49;100.00;101594.97;5085333;28;20056;-61
2021/12/12 08:01:45;;;;;;;41.83;25.27;;;;;;;-0.43;100.00;101600.16;5089839;28;20048;-60
2021/12/12 08:04:13;;;;;;;42.13;24.48;;;;;;;-0.28;100.00;101594.97;5082679;28;20059;-60
2021/12/12 08:06:41;;;;;;;42.67;25.63;;;;;;;-0.36;100.00;101606.19;5073102;28;20496;-60
2021/12/12 08:09:09;;;;;;;41.50;25.55;;;;;;;-0.36;100.00;101599.31;5088678;28;20131;-61
2021/12/12 08:11:36;;;;;;;42.85;26.42;;;;;;;-0.39;100.00;101603.59;5091486;28;20040;-60
2021/12/12 08:14:07;;;;;;;43.05;25.38;;;;;;;-0.32;100.00;101600.16;5089548;28;20094;-60
2021/12/12 08:16:34;;;;;;;50.97;26.77;;;;;;;-0.21;100.00;101590.69;5084170;28;20155;-60
2021/12/12 08:19:01;;;;;;;44.53;25.75;;;;;;;-0.16;100.00;101594.16;5086344;28;20144;-61
2021/12/12 08:21:33;;;;;;;41.78;25.88;;;;;;;-0.19;100.00;101586.38;5062643;28;20044;-60
2021/12/12 08:24:04;;;;;;;43.05;26.27;;;;;;;-0.24;100.00;101589.81;5074286;28;20139;-58
2021/12/12 08:26:32;;;;;;;48.58;26.50;;;;;;;-0.21;100.00;101592.41;5066701;28;20048;-60
2021/12/12 08:29:00;;;;;;;48.25;27.27;;;;;;;-0.21;100.00;101585.53;5089338;28;20068;-58
2021/12/12 08:31:27;;;;;;;44.28;24.92;;;;;;;-0.16;100.00;101585.53;5071659;28;20130;-58
2021/12/12 08:33:54;;;;;;;44.88;26.50;;;;;;;-0.04;100.00;101595.88;5090415;28;20512;-60
2021/12/12 08:36:21;;;;;;;45.55;26.38;;;;;;;0.10;100.00;101580.34;5074797;28;20082;-57
2021/12/12 08:38:48;;;;;;;43.10;25.90;;;;;;;-0.01;100.00;101580.34;5070765;28;20044;-61
2021/12/12 08:41:16;;;;;;;48.75;26.38;;;;;;;0.05;100.00;101590.72;5061399;22;20590;-63
2021/12/12 08:43:43;;;;;;;45.03;26.60;;;;;;;0.06;100.00;101581.22;5034828;28;20050;-64
2021/12/12 08:46:13;;;;;;;44.80;26.52;;;;;;;0.12;100.00;101588.97;5052653;28;20059;-63
2021/12/12 08:48:43;;;;;;;41.30;25.67;;;;;;;0.21;100.00;101581.19;5051174;28;20055;-63
2021/12/12 08:51:17;;;;;;;45.00;25.88;;;;;;;0.22;100.00;101577.72;5049640;28;20092;-63
2021/12/12 08:53:47;;;;;;;44.67;27.05;;;;;;;0.11;100.00;101577.75;5055296;28;20044;-64
2021/12/12 08:56:20;;;;;;;49.20;28.42;;;;;;;0.20;100.00;101584.66;5059494;28;21453;-64
2021/12/12 08:58:48;;;;;;;50.00;28.67;;;;;;;0.15;100.00;101574.31;5058558;28;20057;-64
2021/12/12 09:01:17;;;;;;;50.88;26.98;;;;;;;0.26;100.00;101576.88;5062164;28;20053;-64
2021/12/12 09:04:00;;;;;;;43.50;26.25;;;;;;;0.31;100.00;101566.50;5043156;28;20065;-64
2021/12/12 09:06:57;;;;;;;50.85;27.50;;;;;;;0.39;100.00;101567.34;5071581;28;20049;-64
2021/12/12 09:09:30;;;;;;;41.88;24.83;;;;;;;0.37;100.00;101571.69;5055996;28;20064;-64
2021/12/12 09:11:57;;;;;;;53.33;27.20;;;;;;;0.48;100.00;101567.34;5083216;28;20045;-64
2021/12/12 09:14:39;;;;;;;41.40;25.70;;;;;;;0.43;100.00;101572.53;5065644;28;20052;-63
2021/12/12 09:17:17;;;;;;;44.92;26.38;;;;;;;0.50;100.00;101570.81;5065451;28;20045;-64
2021/12/12 09:19:55;;;;;;;42.97;25.10;;;;;;;0.58;100.00;101563.84;5074959;28;20084;-63
2021/12/12 09:22:30;;;;;;;43.03;25.40;;;;;;;0.61;100.00;101565.56;5066733;28;20067;-63
2021/12/12 09:25:11;;;;;;;46.55;26.65;;;;;;;0.63;100.00;101563.81;5051490;28;20409;-61
2021/12/12 09:27:44;;;;;;;44.25;25.95;;;;;;;0.65;100.00;101569.88;5078392;28;20127;-64
2021/12/12 09:30:20;;;;;;;42.20;25.70;;;;;;;0.67;100.00;101570.72;5053076;28;20098;-64
2021/12/12 09:33:12;;;;;;;47.80;25.48;;;;;;;0.63;100.00;101579.38;5073988;28;20048;-63
2021/12/12 09:35:54;;;;;;;43.38;26.00;;;;;;;0.63;100.00;101584.56;5058401;28;20056;-63
2021/12/12 09:38:37;;;;;;;43.60;24.73;;;;;;;0.66;100.00;101577.66;5079193;28;20048;-63
2021/12/12 09:41:42;;;;;;;43.78;25.98;;;;;;;0.65;100.00;101572.47;5075787;28;20056;-63
2021/12/12 09:44:37;;;;;;;46.95;27.02;;;;;;;0.69;100.00;101575.06;5069024;28;20064;-62
2021/12/12 09:47:35;;;;;;;41.42;25.33;;;;;;;0.89;100.00;101576.72;5045928;28;20053;-64
2021/12/12 09:53:12;;;;;;;40.80;25.02;;;;;;;0.78;100.00;101573.31;5067392;28;20131;-64
2021/12/12 09:55:51;;;;;;;46.00;25.23;;;;;;;0.85;100.00;101580.16;5084097;28;20534;-63
2021/12/12 09:58:46;;;;;;;40.83;25.13;;;;;;;0.77;100.00;101572.44;5056316;28;20136;-63
2021/12/12 10:01:34;;;;;;;44.23;24.37;;;;;;;0.97;100.00;101570.63;5047792;28;20049;-63
2021/12/12 10:04:21;;;;;;;45.75;25.90;;;;;;;0.88;100.00;101573.25;5077914;28;20462;-62
2021/12/12 10:07:01;;;;;;;44.97;25.88;;;;;;;0.94;100.00;101573.22;5069025;28;20127;-63
2021/12/12 10:09:34;;;;;;;46.28;25.98;;;;;;;1.10;100.00;101568.84;5039592;28;20052;-61
2021/12/12 10:12:04;;;;;;;46.40;25.73;;;;;;;1.13;100.00;101566.25;5050599;28;20060;-63
2021/12/12 10:14:31;;;;;;;43.92;25.05;;;;;;;1.11;100.00;101569.69;5049488;28;20186;-63
2021/12/12 10:17:31;;;;;;;46.55;26.83;;;;;;;1.08;100.00;101567.09;5066375;28;20120;-63
2021/12/12 10:20:02;;;;;;;43.92;24.98;;;;;;;1.21;100.00;101561.84;5059817;28;20135;-64
2021/12/12 10:23:09;;;;;;;43.35;24.70;;;;;;;1.08;100.00;101565.41;5052015;28;20055;-64
2021/12/12 10:25:55;;;;;;;41.22;24.50;;;;;;;1.12;100.00;101564.50;5064768;28;20547;-63
2021/12/12 10:28:32;;;;;;;39.13;23.83;;;;;;;1.26;100.00;101556.63;5046487;28;20058;-63
2021/12/12 10:31:04;;;;;;;45.67;26.55;;;;;;;1.41;100.00;101555.72;5077925;28;20127;-63
2021/12/12 10:33:47;;;;;;;40.90;25.95;;;;;;;1.48;100.00;101547.84;5045195;28;20058;-63
2021/12/12 10:36:29;;;;;;;44.45;25.60;;;;;;;1.47;100.00;101538.34;5053929;28;20052;-63
2021/12/12 10:39:19;;;;;;;46.72;25.63;;;;;;;1.58;100.00;101537.44;5076766;28;21061;-63
2021/12/12 10:41:52;;;;;;;39.28;23.73;;;;;;;1.67;100.00;101533.03;5053362;28;20089;-63
2021/12/12 10:44:27;;;;;;;44.80;25.52;;;;;;;1.68;100.00;101539.09;5045992;28;20063;-63
2021/12/12 10:46:56;;;;;;;42.55;24.48;;;;;;;1.72;100.00;101543.38;5071273;28;20135;-63
2021/12/12 10:49:36;;;;;;;39.55;24.50;;;;;;;1.80;100.00;101536.38;5077767;28;20059;-62
2021/12/12 10:52:11;;;;;;;43.35;24.70;;;;;;;1.70;100.00;101540.78;5081269;28;20040;-64
2021/12/12 10:55:01;;;;;;;43.60;24.58;;;;;;;1.70;100.00;101537.31;5067552;28;20338;-64
2021/12/12 10:57:32;;;;;;;42.33;23.77;;;;;;;1.72;100.00;101540.78;5068889;28;20110;-63
2021/12/12 11:00:20;;;;;;;41.08;25.83;;;;;;;1.68;100.00;101536.50;5080036;28;20049;-64
2021/12/12 11:02:59;;;;;;;45.03;24.73;;;;;;;1.76;100.00;101548.53;5047507;28;20557;-63
2021/12/12 11:05:37;;;;;;;44.42;26.52;;;;;;;1.57;100.00;101541.75;5061110;28;20645;-64
2021/12/12 11:08:10;;;;;;;44.47;26.33;;;;;;;1.62;100.00;101536.50;5072272;28;20135;-63
2021/12/12 11:10:59;;;;;;;42.95;24.90;;;;;;;1.65;100.00;101539.09;5066402;28;20131;-64
2021/12/12 11:13:33;;;;;;;45.22;24.83;;;;;;;1.68;100.00;101546.88;5078647;28;20062;-63
2021/12/12 11:16:03;;;;;;;43.47;24.88;;;;;;;1.64;100.00;101543.44;5062586;28;20438;-64
2021/12/12 11:18:35;;;;;;;42.50;24.42;;;;;;;1.56;100.00;101540.03;5067234;28;21006;-64
2021/12/12 11:21:09;;;;;;;41.75;25.17;;;;;;;1.52;100.00;101552.16;5079863;28;20558;-63
2021/12/12 11:23:51;;;;;;;40.67;24.90;;;;;;;1.57;100.00;101544.34;5066664;28;20057;-63
2021/12/12 11:26:34;;;;;;;46.60;26.13;;;;;;;1.58;100.00;101540.03;5066646;28;20055;-63
2021/12/12 11:29:19;;;;;;;42.00;25.77;;;;;;;1.71;100.00;101536.44;5068831;28;20048;-62
2021/12/12 11:31:50;;;;;;;44.15;25.35;;;;;;;1.60;100.00;101541.72;5069245;28;20066;-63
2021/12/12 11:34:46;;;;;;;44.53;26.83;;;;;;;1.56;100.00;101534.84;5062369;28;20064;-60
2021/12/12 11:37:40;;;;;;;44.13;25.83;;;;;;;1.52;100.00;101530.53;5083135;28;20059;-63
2021/12/12 11:40:24;;;;;;;51.97;28.52;;;;;;;1.61;100.00;101533.06;5028765;28;20376;-63
2021/12/12 11:43:04;;;;;;;45.55;26.55;;;;;;;1.65;100.00;101520.94;5067039;28;20131;-64
2021/12/12 11:45:39;;;;;;;47.28;25.70;;;;;;;1.63;100.00;101522.69;5071911;28;20052;-64
2021/12/12 11:48:20;;;;;;;45.13;24.70;;;;;;;1.64;100.00;101519.22;5069636;28;20059;-63
2021/12/12 11:50:59;;;;;;;41.20;25.25;;;;;;;1.73;100.00;101511.34;5068160;28;20087;-63
2021/12/12 11:53:46;;;;;;;44.35;24.98;;;;;;;1.75;100.00;101505.25;5048202;28;20538;-63